Shinkai Maru — JJ4012 — position and weather

sailwx.info

Track history (hours):
 
Tides and Currents Weather Stations Pressure Air Temp Water Temp Dewpoint Dewpoint Depression Visibility Wind Speed Wind Dir Waves Ship Positions

Shinkai Maru

Last reported at 2014-Sep-19 05:25 UTC. Time now 2014-Sep-21 20:06 UTC.
Position N 35°56' E 140°40'.

Length 76 m; draft 3.4 m.

Type: Cargo ship. MMSI: 431301346.

Date/timePositionNaut miles runAvg speedWind from/ knotsBaromVisibWave heightAir tempDewpointWater temp
2014-Sep-19 05:25N 35°56' E 140°40'0 0.0
2014-Sep-19 04:28N 35°56' E 140°40'0 0.0
2014-Sep-19 03:25N 35°56' E 140°40'0 0.0
2014-Sep-19 02:31N 35°56' E 140°40'0 0.0
2014-Sep-19 01:31N 35°56' E 140°40'0 0.0
2014-Sep-19 00:31N 35°56' E 140°40'0 0.0
2014-Sep-18 23:31N 35°56' E 140°40'0 0.0
2014-Sep-18 22:22N 35°56' E 140°40'0 0.0
2014-Sep-18 21:31N 35°56' E 140°40'0 0.0
2014-Sep-18 20:30N 35°56' E 140°40'0 0.0
2014-Sep-18 19:31N 35°56' E 140°40'0 0.0
2014-Sep-18 18:25N 35°56' E 140°40'0 0.0
2014-Sep-18 17:30N 35°56' E 140°40'0 0.0
2014-Sep-18 16:22N 35°56' E 140°40'0 0.0
2014-Sep-18 15:31N 35°56' E 140°40'0 0.0
2014-Sep-18 14:34N 35°56' E 140°40'0 0.0
2014-Sep-18 13:33N 35°56' E 140°40'0 0.0
2014-Sep-18 12:34N 35°56' E 140°40'0 0.0
2014-Sep-18 11:30N 35°56' E 140°40'0 0.0
2014-Sep-18 10:25N 35°56' E 140°40'0 0.0
2014-Sep-18 09:28N 35°56' E 140°40'0 0.0
2014-Sep-18 08:30N 35°56' E 140°40'0 0.0
2014-Sep-18 07:27N 35°56' E 140°40'0 0.0
2014-Sep-18 06:30N 35°56' E 140°40'0 0.0
2014-Sep-18 05:27N 35°56' E 140°40'0 0.0
2014-Sep-18 04:27N 35°56' E 140°40'0 0.0
2014-Sep-18 03:21N 35°56' E 140°40'0 0.0
2014-Sep-18 02:30N 35°56' E 140°40'0 0.0
2014-Sep-18 01:33N 35°56' E 140°40'0 0.0
2014-Sep-18 00:33N 35°56' E 140°40'1 0.9
2014-Sep-17 23:33N 35°55' E 140°41'3 0.7
2014-Sep-17 19:33N 35°57' E 140°42'1110.1
2014-Sep-17 18:29N 35°49' E 140°51'5510.2
2014-Sep-17 13:07N 35°03' E 140°15'814.0
2014-Sep-17 12:33N 34°59' E 140°07'21 7.2
2014-Sep-17 09:33N 35°11' E 139°46'1211.9
2014-Sep-17 08:33N 35°23' E 139°42'1212.2
2014-Sep-17 07:33N 35°31' E 139°53'6 6.2
2014-Sep-17 06:31N 35°37' E 139°57'4 3.8
2014-Sep-17 05:33N 35°40' E 139°57'0 0.3
2014-Sep-17 04:29N 35°41' E 139°57'0 0.0
2014-Sep-17 03:32N 35°41' E 139°57'0 0.0
2014-Sep-17 02:26N 35°41' E 139°57'0 0.3
2014-Sep-17 01:33N 35°40' E 139°57'4 3.3
2014-Sep-17 00:24N 35°37' E 139°58'0 0.0
2014-Sep-16 23:33N 35°37' E 139°58'0 0.0
2014-Sep-16 22:33N 35°37' E 139°58'0 0.0
2014-Sep-16 21:33N 35°37' E 139°58'0 0.0
2014-Sep-16 20:30N 35°37' E 139°58'0 0.0
2014-Sep-16 19:33N 35°37' E 139°58'0 0.0
2014-Sep-16 18:33N 35°37' E 139°58'0 0.0
2014-Sep-16 17:30N 35°37' E 139°58'0 0.0
2014-Sep-16 16:30N 35°37' E 139°58'0 0.0
2014-Sep-16 15:30N 35°37' E 139°58'0 0.1
2014-Sep-16 14:33N 35°37' E 139°58'0 0.0
2014-Sep-16 13:33N 35°37' E 139°58'0 0.0
2014-Sep-16 12:30N 35°37' E 139°58'6 6.8
2014-Sep-16 11:33N 35°31' E 139°54'1312.5
2014-Sep-16 10:33N 35°21' E 139°45'1211.5
2014-Sep-16 09:33N 35°10' E 139°46'243 9.7
2014-Sep-15 08:25N 34°14' E 134°59'1212.2
2014-Sep-15 07:26N 34°25' E 135°00'1111.8
2014-Sep-15 06:33N 34°36' E 135°03'1210.9
2014-Sep-15 05:25N 34°41' E 134°49'4 0.5
2014-Sep-14 21:25N 34°38' E 134°52'8 9.6
2014-Sep-14 20:33N 34°37' E 135°02'9 9.2
2014-Sep-14 19:33N 34°28' E 135°03'1211.3
2014-Sep-14 18:31N 34°17' E 134°59'1111.6
2014-Sep-14 17:33N 34°05' E 135°00'  
2014-Sep-12 13:31N 34°56' E 140°03'1311.9
2014-Sep-12 12:25N 35°04' E 140°17'1310.1
2014-Sep-12 11:08N 35°13' E 140°28'1312.0
2014-Sep-12 10:04N 35°23' E 140°37'812.7
2014-Sep-12 09:26N 35°30' E 140°43'1112.9
2014-Sep-12 08:33N 35°39' E 140°51'1211.2
2014-Sep-12 07:27N 35°51' E 140°49'8 8.1
2014-Sep-12 06:29N 35°56' E 140°42'2 0.1
2014-Sep-11 16:29N 35°56' E 140°40'0 0.0
2014-Sep-11 15:32N 35°56' E 140°40'0 0.0
2014-Sep-11 14:11N 35°56' E 140°40'0 0.0
2014-Sep-11 13:29N 35°56' E 140°40'0 0.0
2014-Sep-11 12:20N 35°56' E 140°40'0 0.0
2014-Sep-11 11:26N 35°56' E 140°40'0 0.0
2014-Sep-11 10:23N 35°56' E 140°40'0 0.0
2014-Sep-11 09:32N 35°56' E 140°40'0 0.0
2014-Sep-11 08:32N 35°56' E 140°40'0 0.0
2014-Sep-11 07:32N 35°56' E 140°40'0 0.0
2014-Sep-11 06:32N 35°56' E 140°40'0 0.0
2014-Sep-11 05:32N 35°56' E 140°40'0 0.0
2014-Sep-11 04:17N 35°56' E 140°40'0 0.0
2014-Sep-11 03:29N 35°56' E 140°40'0 0.0
2014-Sep-11 02:32N 35°56' E 140°40'0 0.0
2014-Sep-11 01:11N 35°56' E 140°40'0 0.0
2014-Sep-11 00:29N 35°56' E 140°40'0 0.0
2014-Sep-10 23:11N 35°56' E 140°40'0 0.0
2014-Sep-10 22:20N 35°56' E 140°40'0 0.0
2014-Sep-10 21:29N 35°56' E 140°40'0 0.0
2014-Sep-10 20:20N 35°56' E 140°40'0 0.0
2014-Sep-10 19:29N 35°56' E 140°40'0 0.1
2014-Sep-10 18:33N 35°56' E 140°40'6 6.3
2014-Sep-10 17:33N 35°54' E 140°47'3210.6
2014-Sep-10 14:31N 35°22' E 140°39'1312.4
2014-Sep-10 13:29N 35°12' E 140°29'1414.0
2014-Sep-10 12:28N 35°03' E 140°16'1314.3
2014-Sep-10 11:32N 34°55' E 140°02'1311.9
2014-Sep-10 10:24N 34°53' E 139°46'9 9.9
2014-Sep-10 09:33N 35°02' E 139°44'1010.1
2014-Sep-10 08:34N 35°12' E 139°46'1110.8
2014-Sep-10 07:34N 35°22' E 139°43'1110.7
2014-Sep-10 06:33N 35°30' E 139°51'1110.8
2014-Sep-10 05:33N 35°39' E 139°58'1 1.3
2014-Sep-10 04:28N 35°41' E 139°57'0 0.0
2014-Sep-10 03:31N 35°41' E 139°57'0 0.0
2014-Sep-10 02:31N 35°41' E 139°57'0 0.0
2014-Sep-10 01:28N 35°41' E 139°57'2 2.1
2014-Sep-10 00:33N 35°39' E 139°58'2 1.6
2014-Sep-09 23:29N 35°37' E 139°58'8 8.7
2014-Sep-09 22:33N 35°30' E 139°53'1211.6
2014-Sep-09 21:33N 35°21' E 139°45'1111.0
2014-Sep-09 20:33N 35°10' E 139°46'1313.4
2014-Sep-09 19:33N 35°00' E 139°35'  
Track history (hours):
 
Tides and Currents Weather Stations Pressure Air Temp Water Temp Dewpoint Dewpoint Depression Visibility Wind Speed Wind Dir Waves Ship Positions

Shinkai Maru

Last reported at 2014-Sep-19 05:25 UTC. Time now 2014-Sep-21 20:06 UTC.
Position N 35°56' E 140°40'.

Length 76 m; draft 3.4 m.

Type: Cargo ship. MMSI: 431301346.

Date/timePositionNaut miles runAvg speedWind from/ knotsBaromVisibWave heightAir tempDewpointWater temp
2014-Sep-19 05:25N 35°56' E 140°40'0 0.0
2014-Sep-19 04:28N 35°56' E 140°40'0 0.0
2014-Sep-19 03:25N 35°56' E 140°40'0 0.0
2014-Sep-19 02:31N 35°56' E 140°40'0 0.0
2014-Sep-19 01:31N 35°56' E 140°40'0 0.0
2014-Sep-19 00:31N 35°56' E 140°40'0 0.0
2014-Sep-18 23:31N 35°56' E 140°40'0 0.0
2014-Sep-18 22:22N 35°56' E 140°40'0 0.0
2014-Sep-18 21:31N 35°56' E 140°40'0 0.0
2014-Sep-18 20:30N 35°56' E 140°40'0 0.0
2014-Sep-18 19:31N 35°56' E 140°40'0 0.0
2014-Sep-18 18:25N 35°56' E 140°40'0 0.0
2014-Sep-18 17:30N 35°56' E 140°40'0 0.0
2014-Sep-18 16:22N 35°56' E 140°40'0 0.0
2014-Sep-18 15:31N 35°56' E 140°40'0 0.0
2014-Sep-18 14:34N 35°56' E 140°40'0 0.0
2014-Sep-18 13:33N 35°56' E 140°40'0 0.0
2014-Sep-18 12:34N 35°56' E 140°40'0 0.0
2014-Sep-18 11:30N 35°56' E 140°40'0 0.0
2014-Sep-18 10:25N 35°56' E 140°40'0 0.0
2014-Sep-18 09:28N 35°56' E 140°40'0 0.0
2014-Sep-18 08:30N 35°56' E 140°40'0 0.0
2014-Sep-18 07:27N 35°56' E 140°40'0 0.0
2014-Sep-18 06:30N 35°56' E 140°40'0 0.0
2014-Sep-18 05:27N 35°56' E 140°40'0 0.0
2014-Sep-18 04:27N 35°56' E 140°40'0 0.0
2014-Sep-18 03:21N 35°56' E 140°40'0 0.0
2014-Sep-18 02:30N 35°56' E 140°40'0 0.0
2014-Sep-18 01:33N 35°56' E 140°40'0 0.0
2014-Sep-18 00:33N 35°56' E 140°40'1 0.9
2014-Sep-17 23:33N 35°55' E 140°41'3 0.7
2014-Sep-17 19:33N 35°57' E 140°42'1110.1
2014-Sep-17 18:29N 35°49' E 140°51'5510.2
2014-Sep-17 13:07N 35°03' E 140°15'814.0
2014-Sep-17 12:33N 34°59' E 140°07'21 7.2
2014-Sep-17 09:33N 35°11' E 139°46'1211.9
2014-Sep-17 08:33N 35°23' E 139°42'1212.2
2014-Sep-17 07:33N 35°31' E 139°53'6 6.2
2014-Sep-17 06:31N 35°37' E 139°57'4 3.8
2014-Sep-17 05:33N 35°40' E 139°57'0 0.3
2014-Sep-17 04:29N 35°41' E 139°57'0 0.0
2014-Sep-17 03:32N 35°41' E 139°57'0 0.0
2014-Sep-17 02:26N 35°41' E 139°57'0 0.3
2014-Sep-17 01:33N 35°40' E 139°57'4 3.3
2014-Sep-17 00:24N 35°37' E 139°58'0 0.0
2014-Sep-16 23:33N 35°37' E 139°58'0 0.0
2014-Sep-16 22:33N 35°37' E 139°58'0 0.0
2014-Sep-16 21:33N 35°37' E 139°58'0 0.0
2014-Sep-16 20:30N 35°37' E 139°58'0 0.0
2014-Sep-16 19:33N 35°37' E 139°58'0 0.0
2014-Sep-16 18:33N 35°37' E 139°58'0 0.0
2014-Sep-16 17:30N 35°37' E 139°58'0 0.0
2014-Sep-16 16:30N 35°37' E 139°58'0 0.0
2014-Sep-16 15:30N 35°37' E 139°58'0 0.1
2014-Sep-16 14:33N 35°37' E 139°58'0 0.0
2014-Sep-16 13:33N 35°37' E 139°58'0 0.0
2014-Sep-16 12:30N 35°37' E 139°58'6 6.8
2014-Sep-16 11:33N 35°31' E 139°54'1312.5
2014-Sep-16 10:33N 35°21' E 139°45'1211.5
2014-Sep-16 09:33N 35°10' E 139°46'243 9.7
2014-Sep-15 08:25N 34°14' E 134°59'1212.2
2014-Sep-15 07:26N 34°25' E 135°00'1111.8
2014-Sep-15 06:33N 34°36' E 135°03'1210.9
2014-Sep-15 05:25N 34°41' E 134°49'4 0.5
2014-Sep-14 21:25N 34°38' E 134°52'8 9.6
2014-Sep-14 20:33N 34°37' E 135°02'9 9.2
2014-Sep-14 19:33N 34°28' E 135°03'1211.3
2014-Sep-14 18:31N 34°17' E 134°59'1111.6
2014-Sep-14 17:33N 34°05' E 135°00'  
2014-Sep-12 13:31N 34°56' E 140°03'1311.9
2014-Sep-12 12:25N 35°04' E 140°17'1310.1
2014-Sep-12 11:08N 35°13' E 140°28'1312.0
2014-Sep-12 10:04N 35°23' E 140°37'812.7
2014-Sep-12 09:26N 35°30' E 140°43'1112.9
2014-Sep-12 08:33N 35°39' E 140°51'1211.2
2014-Sep-12 07:27N 35°51' E 140°49'8 8.1
2014-Sep-12 06:29N 35°56' E 140°42'2 0.1
2014-Sep-11 16:29N 35°56' E 140°40'0 0.0
2014-Sep-11 15:32N 35°56' E 140°40'0 0.0
2014-Sep-11 14:11N 35°56' E 140°40'0 0.0
2014-Sep-11 13:29N 35°56' E 140°40'0 0.0
2014-Sep-11 12:20N 35°56' E 140°40'0 0.0
2014-Sep-11 11:26N 35°56' E 140°40'0 0.0
2014-Sep-11 10:23N 35°56' E 140°40'0 0.0
2014-Sep-11 09:32N 35°56' E 140°40'0 0.0
2014-Sep-11 08:32N 35°56' E 140°40'0 0.0
2014-Sep-11 07:32N 35°56' E 140°40'0 0.0
2014-Sep-11 06:32N 35°56' E 140°40'0 0.0
2014-Sep-11 05:32N 35°56' E 140°40'0 0.0
2014-Sep-11 04:17N 35°56' E 140°40'0 0.0
2014-Sep-11 03:29N 35°56' E 140°40'0 0.0
2014-Sep-11 02:32N 35°56' E 140°40'0 0.0
2014-Sep-11 01:11N 35°56' E 140°40'0 0.0
2014-Sep-11 00:29N 35°56' E 140°40'0 0.0
2014-Sep-10 23:11N 35°56' E 140°40'0 0.0
2014-Sep-10 22:20N 35°56' E 140°40'0 0.0
2014-Sep-10 21:29N 35°56' E 140°40'0 0.0
2014-Sep-10 20:20N 35°56' E 140°40'0 0.0
2014-Sep-10 19:29N 35°56' E 140°40'0 0.1
2014-Sep-10 18:33N 35°56' E 140°40'6 6.3
2014-Sep-10 17:33N 35°54' E 140°47'3210.6
2014-Sep-10 14:31N 35°22' E 140°39'1312.4
2014-Sep-10 13:29N 35°12' E 140°29'1414.0
2014-Sep-10 12:28N 35°03' E 140°16'1314.3
2014-Sep-10 11:32N 34°55' E 140°02'1311.9
2014-Sep-10 10:24N 34°53' E 139°46'9 9.9
2014-Sep-10 09:33N 35°02' E 139°44'1010.1
2014-Sep-10 08:34N 35°12' E 139°46'1110.8
2014-Sep-10 07:34N 35°22' E 139°43'1110.7
2014-Sep-10 06:33N 35°30' E 139°51'1110.8
2014-Sep-10 05:33N 35°39' E 139°58'1 1.3
2014-Sep-10 04:28N 35°41' E 139°57'0 0.0
2014-Sep-10 03:31N 35°41' E 139°57'0 0.0
2014-Sep-10 02:31N 35°41' E 139°57'0 0.0
2014-Sep-10 01:28N 35°41' E 139°57'2 2.1
2014-Sep-10 00:33N 35°39' E 139°58'2 1.6
2014-Sep-09 23:29N 35°37' E 139°58'8 8.7
2014-Sep-09 22:33N 35°30' E 139°53'1211.6
2014-Sep-09 21:33N 35°21' E 139°45'1111.0
2014-Sep-09 20:33N 35°10' E 139°46'1313.4
2014-Sep-09 19:33N 35°00' E 139°35'  

Dump ship's entire track history